Nelvik, North Dakota
Current Conditions -  °F | °C
As of 3:15 PM on Monday 22 Dec 2014 (Local Time) from K7L2 Reporting Station
Light Snow Light Snow  
Wind Chill: 23°   Ceiling: 400
Heat Index: 32°   Visibility: 1.5mi
Dew Point: 32°   Wind: 12mph
Humidity: 100%   Direction: 340°NNW
Pressure: 29.49"   Gusts: 18mph
Location:  46.0926°N, 99.1856°W
Report Text: K7L2 222115Z AUTO 34010G16KT 1 1/2SM -SN OVC004 00/00 A2949 RMK AO2
Loading
Personal Weather Stations






























Interactive Weather Map New forecast layout! Learn more

10-Day Weather Forecast

Advertisements
Track Severe Weather on mobile